Time;durP1;ratioP1;P1;durP2;ratioP2;P2;SDS_P1;SDS_P2;PMS_P1;PMS_P2;Temp;Humidity;BMP_temperature;BMP_pressure;BME280_temperature;BME280_humidity;BME280_pressure;Samples;Min_cycle;Max_cycle;Signal;HPM_P1;HPM_P2
2022/10/20 00:00:01;;;;;;;1.80;1.30;;;;;;;18.73;54.29;101881.88;5127355;28;20065;-56
2022/10/20 00:02:26;;;;;;;1.80;1.52;;;;;;;18.73;54.39;101888.16;5127802;28;20442;-56
2022/10/20 00:04:51;;;;;;;1.58;1.20;;;;;;;18.72;54.19;101880.19;5127252;28;20028;-56
2022/10/20 00:07:17;;;;;;;1.30;1.20;;;;;;;18.68;54.52;101873.34;5141330;27;20099;-56
2022/10/20 00:09:42;;;;;;;2.05;1.35;;;;;;;18.59;54.16;101858.91;5140655;27;20027;-55
2022/10/20 00:12:07;;;;;;;2.15;1.50;;;;;;;18.68;54.17;101881.44;5127636;28;20027;-55
2022/10/20 00:14:32;;;;;;;1.40;1.13;;;;;;;18.69;54.41;101878.66;5143721;27;20026;-55
2022/10/20 00:17:00;;;;;;;1.42;1.20;;;;;;;18.69;54.45;101872.34;5148285;27;20050;-54
2022/10/20 00:19:25;;;;;;;1.90;1.42;;;;;;;18.68;54.47;101867.97;5147333;27;20019;-53
2022/10/20 00:21:51;;;;;;;1.67;1.30;;;;;;;18.67;54.08;101866.28;5147991;27;20038;-56
2022/10/20 00:24:18;;;;;;;1.60;1.20;;;;;;;18.66;54.25;101857.34;5129339;27;20628;-57
2022/10/20 00:26:43;;;;;;;1.85;1.52;;;;;;;18.66;54.14;101851.09;5127404;28;20282;-56
2022/10/20 00:29:09;;;;;;;1.98;1.70;;;;;;;18.65;54.12;101849.41;5126803;28;20458;-53
2022/10/20 00:31:34;;;;;;;3.05;1.40;;;;;;;18.65;54.32;101844.03;5127117;28;20441;-54
2022/10/20 00:33:59;;;;;;;3.08;1.30;;;;;;;18.64;54.03;101839.63;5126435;28;20024;-55
2022/10/20 00:36:24;;;;;;;1.48;1.25;;;;;;;18.60;54.08;101819.34;5127350;28;20031;-54
2022/10/20 00:38:51;;;;;;;1.48;1.30;;;;;;;18.62;54.10;101820.91;5126799;28;20027;-53
2022/10/20 00:41:18;;;;;;;2.17;1.35;;;;;;;18.58;54.09;101808.72;5125363;28;20050;-54
2022/10/20 00:43:48;;;;;;;1.30;1.10;;;;;;;18.61;54.22;101811.16;5125955;28;20288;-56
2022/10/20 00:46:17;;;;;;;2.28;1.25;;;;;;;18.58;54.30;101803.34;5125847;28;20103;-56
2022/10/20 00:48:46;;;;;;;2.50;1.40;;;;;;;18.60;54.21;101806.72;5125257;27;20058;-56
2022/10/20 00:51:14;;;;;;;2.10;1.45;;;;;;;18.57;54.24;101807.03;5126540;28;20058;-57
2022/10/20 00:53:41;;;;;;;1.47;1.27;;;;;;;18.58;54.05;101799.81;5125405;28;20110;-55
2022/10/20 00:56:06;;;;;;;2.83;1.52;;;;;;;18.59;54.28;101805.03;5126814;27;20268;-54
2022/10/20 00:58:33;;;;;;;1.10;1.00;;;;;;;18.58;54.17;101802.50;5126159;28;20050;-57
2022/10/20 01:00:58;;;;;;;1.83;1.20;;;;;;;18.53;53.84;101794.00;5125142;28;20091;-57
2022/10/20 01:03:33;;;;;;;1.48;1.27;;;;;;;18.57;54.13;101784.66;5126136;28;20031;-56
2022/10/20 01:05:59;;;;;;;1.83;1.20;;;;;;;18.56;54.42;101786.47;5127831;27;20026;-57
2022/10/20 01:08:24;;;;;;;1.65;1.50;;;;;;;18.55;54.22;101774.00;5145287;27;20023;-56
2022/10/20 01:11:08;;;;;;;2.38;1.50;;;;;;;18.55;54.05;101768.63;5147093;27;20023;-56
2022/10/20 01:13:56;;;;;;;2.22;1.30;;;;;;;18.54;53.96;101768.78;5146881;27;20542;-55
2022/10/20 01:16:41;;;;;;;1.53;1.43;;;;;;;18.54;54.05;101758.00;5146212;27;20016;-55
2022/10/20 01:19:39;;;;;;;1.65;1.25;;;;;;;18.53;53.93;101756.31;5124251;28;20315;-54
2022/10/20 01:22:16;;;;;;;1.58;1.33;;;;;;;18.52;53.99;101760.84;5091422;28;20043;-56
2022/10/20 01:24:54;;;;;;;1.98;1.27;;;;;;;18.38;53.92;101734.34;5124812;28;20020;-56
2022/10/20 01:27:36;;;;;;;1.30;1.20;;;;;;;18.49;54.00;101753.91;5125011;28;20069;-54
2022/10/20 01:30:08;;;;;;;1.20;1.10;;;;;;;18.49;54.34;101758.44;5124633;28;20023;-55
2022/10/20 01:32:53;;;;;;;1.70;1.40;;;;;;;18.48;54.04;101749.50;5124446;28;20020;-56
2022/10/20 01:35:21;;;;;;;2.35;1.35;;;;;;;18.48;53.97;101751.34;5124111;28;20042;-56
2022/10/20 01:38:17;;;;;;;1.70;1.45;;;;;;;18.46;54.25;101732.63;5126217;28;20019;-56
2022/10/20 01:41:06;;;;;;;1.35;1.20;;;;;;;18.32;53.82;101716.09;5125673;28;20026;-56
2022/10/20 01:43:35;;;;;;;0.98;0.95;;;;;;;18.45;54.25;101739.03;5125711;28;20030;-56
2022/10/20 01:46:00;;;;;;;1.52;1.20;;;;;;;18.40;54.14;101727.84;5124686;28;20034;-56
2022/10/20 01:48:29;;;;;;;1.58;1.40;;;;;;;18.45;53.77;101727.41;5137320;27;20027;-57
2022/10/20 01:50:55;;;;;;;1.92;1.40;;;;;;;18.44;53.96;101729.25;5144538;27;20019;-56
2022/10/20 01:53:20;;;;;;;1.65;1.35;;;;;;;18.43;54.05;101732.06;5145639;27;20042;-55
2022/10/20 01:55:49;;;;;;;1.25;1.08;;;;;;;18.28;54.16;101698.53;5146226;27;20090;-54
2022/10/20 01:58:33;;;;;;;1.55;1.25;;;;;;;18.41;53.83;101726.84;5127239;27;20067;-56
2022/10/20 02:01:12;;;;;;;2.35;1.60;;;;;;;18.40;54.06;101708.16;5123993;28;20503;-57
2022/10/20 02:03:55;;;;;;;1.67;1.42;;;;;;;18.37;53.91;101705.75;5123606;28;20408;-54
2022/10/20 02:07:02;;;;;;;1.30;1.20;;;;;;;18.40;53.96;101695.53;5129394;27;20037;-56
2022/10/20 02:09:49;;;;;;;2.35;1.40;;;;;;;18.38;54.16;101694.81;5145120;27;20027;-56
2022/10/20 02:12:24;;;;;;;1.63;1.25;;;;;;;18.38;53.78;101685.91;5144575;27;20023;-55
2022/10/20 02:14:49;;;;;;;1.52;1.42;;;;;;;18.34;54.12;101671.88;5125427;27;20058;-56
2022/10/20 02:17:16;;;;;;;1.30;1.20;;;;;;;18.36;53.77;101677.97;5130402;27;20027;-55
2022/10/20 02:19:43;;;;;;;1.45;1.25;;;;;;;18.36;53.86;101682.50;5143934;27;20092;-56
2022/10/20 02:22:11;;;;;;;1.90;1.45;;;;;;;18.36;54.23;101685.22;5126937;27;20027;-52
2022/10/20 02:24:38;;;;;;;1.40;1.10;;;;;;;18.36;54.12;101669.06;5144477;27;20058;-55
2022/10/20 02:27:10;;;;;;;2.10;1.48;;;;;;;18.34;54.05;101669.19;5145175;27;20031;-55
2022/10/20 02:29:38;;;;;;;2.30;1.60;;;;;;;18.30;54.14;101651.63;5143797;27;20045;-55
2022/10/20 02:32:04;;;;;;;1.25;1.15;;;;;;;18.33;53.92;101672.88;5144456;27;20027;-54
2022/10/20 02:34:29;;;;;;;1.67;1.42;;;;;;;18.31;54.05;101672.19;5143855;27;20380;-54
2022/10/20 02:36:57;;;;;;;1.70;1.35;;;;;;;18.32;53.84;101660.41;5145824;27;20026;-55
2022/10/20 02:39:22;;;;;;;1.75;1.40;;;;;;;18.24;53.86;101647.69;5145081;27;20065;-54
2022/10/20 02:41:48;;;;;;;1.95;1.77;;;;;;;18.27;53.90;101649.25;5145270;27;20027;-54
2022/10/20 02:44:13;;;;;;;1.50;1.40;;;;;;;18.31;53.77;101652.47;5145187;27;20038;-55
2022/10/20 02:46:38;;;;;;;1.73;1.40;;;;;;;18.31;53.80;101644.38;5141989;27;20131;-56
2022/10/20 02:49:04;;;;;;;1.45;1.35;;;;;;;18.23;53.80;101627.16;5124351;28;20376;-55
2022/10/20 02:51:29;;;;;;;1.77;1.30;;;;;;;18.29;53.82;101638.31;5124554;28;20031;-53
2022/10/20 02:53:54;;;;;;;2.00;1.70;;;;;;;18.29;53.67;101638.31;5124239;28;20027;-56
2022/10/20 02:56:21;;;;;;;1.80;1.38;;;;;;;18.29;53.64;101641.00;5124678;28;20034;-57
2022/10/20 02:58:46;;;;;;;1.65;1.48;;;;;;;18.26;53.69;101641.28;5122415;28;20052;-53
2022/10/20 03:01:11;;;;;;;1.40;1.30;;;;;;;18.23;53.75;101635.22;5124306;28;20030;-53
2022/10/20 03:03:37;;;;;;;1.90;1.30;;;;;;;18.26;53.73;101630.53;5123716;28;20028;-55
2022/10/20 03:06:13;;;;;;;1.42;1.33;;;;;;;18.24;53.78;101623.47;5126814;27;20459;-54
2022/10/20 03:08:38;;;;;;;1.23;1.13;;;;;;;18.09;53.71;101606.06;5144606;27;20019;-56
2022/10/20 03:11:04;;;;;;;2.33;1.50;;;;;;;18.24;53.98;101618.06;5144813;27;20478;-55
2022/10/20 03:13:29;;;;;;;1.60;1.25;;;;;;;18.11;53.86;101584.41;5137208;27;20049;-56
2022/10/20 03:15:54;;;;;;;1.73;1.35;;;;;;;18.23;53.67;101602.09;5124544;28;20023;-57
2022/10/20 03:18:20;;;;;;;1.83;1.38;;;;;;;18.21;53.73;101602.22;5124261;28;20028;-56
2022/10/20 03:20:45;;;;;;;1.40;1.30;;;;;;;18.22;53.62;101597.66;5123950;28;20027;-55
2022/10/20 03:23:10;;;;;;;2.03;1.63;;;;;;;18.21;53.69;101599.50;5123990;28;20024;-55
2022/10/20 03:25:35;;;;;;;1.40;1.27;;;;;;;18.20;53.70;101603.22;5124267;28;20050;-56
2022/10/20 03:28:01;;;;;;;1.15;1.05;;;;;;;18.20;53.90;101603.22;5124063;28;20028;-54
2022/10/20 03:30:26;;;;;;;1.60;1.50;;;;;;;18.14;53.94;101590.34;5123966;28;20043;-54
2022/10/20 03:32:52;;;;;;;1.92;1.50;;;;;;;18.18;54.05;101594.44;5124271;28;20023;-54
2022/10/20 03:35:17;;;;;;;1.90;1.20;;;;;;;18.19;53.88;101589.91;5123457;28;20027;-56
2022/10/20 03:37:42;;;;;;;1.85;1.55;;;;;;;18.18;53.49;101585.50;5124244;28;20035;-55
2022/10/20 03:40:08;;;;;;;1.60;1.50;;;;;;;18.16;53.44;101585.66;5132515;28;20449;-54
2022/10/20 03:42:33;;;;;;;1.30;1.20;;;;;;;18.16;53.64;101582.13;5121492;27;20028;-55
2022/10/20 03:44:58;;;;;;;1.83;1.10;;;;;;;18.16;53.47;101582.13;5123995;28;20028;-55
2022/10/20 03:47:24;;;;;;;1.50;1.40;;;;;;;18.16;53.97;101576.75;5141760;28;20038;-56
2022/10/20 03:49:49;;;;;;;1.45;1.20;;;;;;;18.15;53.57;101585.81;5143797;28;20035;-56
2022/10/20 03:52:14;;;;;;;1.77;1.50;;;;;;;18.10;53.89;101571.97;5144417;28;20027;-57
2022/10/20 03:54:39;;;;;;;1.40;1.30;;;;;;;18.14;53.85;101582.28;5144069;28;20072;-56
2022/10/20 03:57:05;;;;;;;1.63;1.30;;;;;;;18.10;53.69;101580.03;5143683;27;20026;-56
2022/10/20 03:59:30;;;;;;;2.13;1.30;;;;;;;18.14;53.79;101578.75;5144164;27;20083;-55
2022/10/20 04:01:56;;;;;;;1.60;1.40;;;;;;;18.12;53.61;101567.25;5144505;28;20027;-56
2022/10/20 04:04:21;;;;;;;1.75;1.40;;;;;;;18.12;53.63;101567.25;5143788;28;20023;-55
2022/10/20 04:06:46;;;;;;;2.55;1.42;;;;;;;18.11;53.65;101561.03;5135189;28;20027;-55
2022/10/20 04:09:11;;;;;;;1.40;1.20;;;;;;;18.10;53.89;101561.19;5125336;28;20372;-56
2022/10/20 04:11:36;;;;;;;1.60;1.15;;;;;;;18.11;53.82;101552.13;5136702;28;20091;-56
2022/10/20 04:14:02;;;;;;;1.20;1.10;;;;;;;18.11;53.59;101533.28;5125460;28;20024;-55
2022/10/20 04:16:27;;;;;;;1.40;1.10;;;;;;;18.09;53.88;101528.03;5124557;28;20083;-56
2022/10/20 04:18:53;;;;;;;1.67;1.30;;;;;;;18.09;53.80;101525.34;5126558;28;20019;-57
2022/10/20 04:21:19;;;;;;;1.45;1.20;;;;;;;18.01;53.70;101494.78;5128999;27;20064;-53
2022/10/20 04:23:44;;;;;;;1.30;1.20;;;;;;;18.01;53.51;101486.72;5133356;27;20031;-56
2022/10/20 04:26:11;;;;;;;1.63;1.25;;;;;;;18.08;53.68;101495.91;5137768;27;20031;-55
2022/10/20 04:28:37;;;;;;;1.35;1.20;;;;;;;18.08;53.67;101501.28;5147016;27;20038;-51
2022/10/20 04:31:02;;;;;;;1.73;1.42;;;;;;;18.07;53.70;101503.13;5132012;27;20031;-56
2022/10/20 04:33:27;;;;;;;3.53;1.30;;;;;;;18.07;54.03;101497.75;5130328;27;20035;-56
2022/10/20 04:36:00;;;;;;;1.27;1.20;;;;;;;18.07;53.67;101499.59;5140983;27;20023;-56
2022/10/20 04:38:28;;;;;;;2.17;1.30;;;;;;;18.04;53.54;101492.66;5127023;28;20028;-56
2022/10/20 04:40:58;;;;;;;1.50;1.23;;;;;;;18.01;53.65;101476.81;5137607;27;20038;-56
2022/10/20 04:43:23;;;;;;;1.50;1.40;;;;;;;18.06;53.72;101487.13;5137596;27;20113;-55
2022/10/20 04:45:49;;;;;;;1.50;1.38;;;;;;;17.97;53.83;101481.66;5145037;27;20016;-54
2022/10/20 04:48:15;;;;;;;1.35;1.25;;;;;;;18.05;53.72;101480.03;5147083;27;20027;-54
2022/10/20 04:50:40;;;;;;;1.73;1.13;;;;;;;18.06;53.76;101489.84;5146724;27;20023;-56
2022/10/20 04:53:06;;;;;;;2.00;1.40;;;;;;;18.06;53.98;101473.69;5147156;27;20150;-50
2022/10/20 04:55:32;;;;;;;1.92;1.30;;;;;;;18.04;54.06;101465.75;5146636;27;20038;-55
2022/10/20 04:57:57;;;;;;;1.77;1.30;;;;;;;18.05;54.10;101450.44;5146722;27;20054;-54
2022/10/20 05:00:22;;;;;;;1.40;1.30;;;;;;;18.05;54.28;101455.81;5146754;27;20023;-55
2022/10/20 05:02:47;;;;;;;1.40;1.20;;;;;;;18.05;54.17;101461.19;5147419;27;20616;-55
2022/10/20 05:05:13;;;;;;;1.55;1.10;;;;;;;18.05;54.23;101455.81;5146003;27;20035;-56
2022/10/20 05:07:38;;;;;;;2.25;1.40;;;;;;;18.07;54.28;101459.22;5137037;27;20031;-54
2022/10/20 05:10:04;;;;;;;1.83;1.25;;;;;;;18.03;54.19;101434.47;5146198;27;20488;-55
2022/10/20 05:12:29;;;;;;;1.25;1.10;;;;;;;17.94;54.01;101422.75;5146562;27;20042;-56
2022/10/20 05:14:54;;;;;;;1.95;1.42;;;;;;;18.01;54.19;101419.44;5126884;27;20468;-55
2022/10/20 05:17:20;;;;;;;1.33;1.23;;;;;;;17.96;54.07;101404.59;5136345;27;20027;-52
2022/10/20 05:19:45;;;;;;;2.10;1.33;;;;;;;17.99;54.25;101408.84;5126159;27;20027;-56
2022/10/20 05:22:10;;;;;;;1.55;1.27;;;;;;;18.06;54.07;101422.56;5131559;27;20026;-53
2022/10/20 05:24:36;;;;;;;1.65;1.55;;;;;;;18.05;54.05;101410.06;5146244;27;20022;-57
2022/10/20 05:27:01;;;;;;;1.35;1.15;;;;;;;18.05;54.35;101404.69;5146429;27;20023;-56
2022/10/20 05:29:26;;;;;;;1.40;1.30;;;;;;;18.06;54.12;101393.81;5145008;27;20038;-54
2022/10/20 05:31:51;;;;;;;1.45;1.35;;;;;;;18.04;54.37;101376.94;5145346;27;20403;-53
2022/10/20 05:34:17;;;;;;;1.33;1.23;;;;;;;18.04;54.37;101384.19;5141027;27;20110;-53
2022/10/20 05:36:42;;;;;;;1.58;1.27;;;;;;;18.06;54.45;101390.28;5141363;27;20023;-55
2022/10/20 05:39:09;;;;;;;1.58;1.45;;;;;;;18.02;54.21;101380.81;5145877;27;20053;-53
2022/10/20 05:41:34;;;;;;;2.13;1.50;;;;;;;17.98;54.24;101375.72;5145774;27;20019;-52
2022/10/20 05:44:01;;;;;;;1.13;1.02;;;;;;;18.05;54.55;101388.56;5145682;27;20034;-54
2022/10/20 05:46:29;;;;;;;1.77;1.30;;;;;;;18.02;54.63;101368.19;5146578;27;20046;-50
2022/10/20 05:48:56;;;;;;;1.60;1.30;;;;;;;18.05;54.27;101367.03;5145711;27;20027;-53
2022/10/20 05:51:24;;;;;;;1.50;1.35;;;;;;;18.03;54.34;101364.50;5146059;27;20023;-55
2022/10/20 05:53:50;;;;;;;1.25;1.15;;;;;;;18.04;54.51;101360.81;5145571;27;20030;-54
2022/10/20 05:56:17;;;;;;;1.42;1.27;;;;;;;17.89;54.27;101330.91;5145748;27;20027;-54
2022/10/20 05:58:43;;;;;;;2.28;1.42;;;;;;;17.99;54.38;101358.56;5145556;27;20035;-53
2022/10/20 06:01:47;;;;;;;3.17;1.55;;;;;;;18.04;54.64;101374.25;5145926;27;20377;-51
2022/10/20 06:04:23;;;;;;;3.78;1.20;;;;;;;17.96;54.30;101366.09;5102682;27;20035;-55
2022/10/20 06:06:50;;;;;;;1.65;1.35;;;;;;;18.02;54.41;101375.44;5136364;27;20050;-53
2022/10/20 06:09:15;;;;;;;1.92;1.40;;;;;;;18.01;54.66;101377.28;5124822;28;20027;-55
2022/10/20 06:11:41;;;;;;;2.67;1.33;;;;;;;17.99;54.41;101373.88;5124619;28;20028;-56
2022/10/20 06:14:07;;;;;;;1.90;1.30;;;;;;;17.97;54.53;101370.50;5137359;27;20031;-54
2022/10/20 06:16:32;;;;;;;3.53;1.98;;;;;;;18.02;54.43;101386.19;5127832;27;20055;-54
2022/10/20 06:18:58;;;;;;;1.92;1.20;;;;;;;18.01;54.46;101373.72;5124599;27;20042;-55
2022/10/20 06:21:29;;;;;;;1.95;1.25;;;;;;;18.01;54.69;101362.94;5136027;27;20027;-53
2022/10/20 06:23:54;;;;;;;1.50;1.40;;;;;;;18.01;54.44;101368.31;5143807;27;20036;-52
2022/10/20 06:26:24;;;;;;;3.03;1.30;;;;;;;17.97;54.74;101368.66;5145842;27;20038;-53
2022/10/20 06:28:53;;;;;;;4.50;1.70;;;;;;;18.00;54.61;101370.19;5145251;27;20019;-55
2022/10/20 06:31:29;;;;;;;1.83;1.35;;;;;;;18.00;54.37;101378.25;5145437;27;20019;-53
2022/10/20 06:33:56;;;;;;;1.90;1.33;;;;;;;17.88;54.50;101358.81;5144728;27;20058;-52
2022/10/20 06:36:21;;;;;;;1.80;1.33;;;;;;;17.92;54.36;101376.31;5144727;27;20038;-56
2022/10/20 06:38:47;;;;;;;1.35;1.25;;;;;;;17.96;54.66;101380.38;5124525;27;20035;-52
2022/10/20 06:41:16;;;;;;;2.35;1.50;;;;;;;17.99;54.50;101372.03;5143928;27;20036;-55
2022/10/20 06:43:42;;;;;;;;;;;;;;;18.01;54.51;101368.31;5145530;27;20102;-53
2022/10/20 06:46:10;;;;;;;1.45;1.20;;;;;;;17.92;54.39;101341.34;5145421;27;19911;-53
2022/10/20 06:48:35;;;;;;;2.03;1.30;;;;;;;18.01;54.34;101354.88;5143165;27;20038;-54
2022/10/20 06:51:06;;;;;;;2.55;1.48;;;;;;;18.00;54.49;101343.28;5144973;27;20023;-53
2022/10/20 06:53:33;;;;;;;1.38;1.27;;;;;;;17.87;54.32;101342.78;5144955;27;20034;-51
2022/10/20 06:56:05;;;;;;;1.33;1.23;;;;;;;18.02;54.70;101405.03;5145112;27;20023;-52
2022/10/20 06:58:31;;;;;;;1.60;1.50;;;;;;;18.02;54.56;101405.03;5144582;27;20039;-55
2022/10/20 07:00:58;;;;;;;1.65;1.50;;;;;;;18.02;54.12;101403.16;5143391;27;20524;-55
2022/10/20 07:03:23;;;;;;;2.47;1.35;;;;;;;18.03;54.54;101387.88;5144954;27;20054;-54
2022/10/20 07:05:49;;;;;;;3.33;1.67;;;;;;;18.04;54.47;101389.56;5143431;27;20039;-54
2022/10/20 07:08:14;;;;;;;1.70;1.60;;;;;;;18.03;54.19;101394.09;5123128;28;20058;-56
2022/10/20 07:10:39;;;;;;;2.00;1.73;;;;;;;18.03;54.34;101377.09;5122522;28;20034;-55
2022/10/20 07:13:04;;;;;;;2.22;1.40;;;;;;;18.05;54.12;101369.72;5127823;28;20046;-53
2022/10/20 07:15:29;;;;;;;2.38;1.55;;;;;;;18.06;54.13;101380.34;5144720;27;20022;-54
2022/10/20 07:17:55;;;;;;;1.60;1.50;;;;;;;18.06;54.29;101380.34;5135007;27;20031;-53
2022/10/20 07:20:20;;;;;;;2.80;1.20;;;;;;;18.06;54.09;101377.66;5123374;27;20073;-54
2022/10/20 07:22:45;;;;;;;1.75;1.50;;;;;;;18.08;54.21;101366.72;5124126;28;20024;-55
2022/10/20 07:25:10;;;;;;;2.65;1.58;;;;;;;18.09;54.49;101373.81;5123945;28;20042;-56
2022/10/20 07:27:36;;;;;;;1.60;1.50;;;;;;;18.07;54.36;101367.75;5123817;28;20031;-53
2022/10/20 07:30:01;;;;;;;1.60;1.45;;;;;;;17.78;54.32;101336.47;5123654;28;20015;-54
2022/10/20 07:32:26;;;;;;;1.60;1.50;;;;;;;18.13;54.25;101369.81;5124101;28;20150;-54
2022/10/20 07:34:52;;;;;;;2.83;1.75;;;;;;;18.09;54.53;101349.59;5123505;28;20035;-54
2022/10/20 07:37:18;;;;;;;2.47;1.50;;;;;;;18.16;54.19;101370.34;5124246;28;20057;-55
2022/10/20 07:39:43;;;;;;;1.90;1.50;;;;;;;17.07;53.98;101178.53;5130133;28;20031;-50
2022/10/20 07:42:08;;;;;;;3.50;1.40;;;;;;;18.20;53.88;101354.75;5142990;28;20082;-54
2022/10/20 07:44:33;;;;;;;1.70;1.60;;;;;;;18.21;54.25;101361.81;5144082;28;20039;-57
2022/10/20 07:46:59;;;;;;;1.95;1.70;;;;;;;18.22;53.91;101361.69;5144739;27;20040;-55
2022/10/20 07:49:24;;;;;;;3.05;1.85;;;;;;;18.24;54.10;101370.44;5143752;28;20026;-55
2022/10/20 07:51:49;;;;;;;1.85;1.48;;;;;;;18.24;53.73;101353.44;5146044;27;20022;-57
2022/10/20 07:54:14;;;;;;;1.50;1.40;;;;;;;18.23;54.01;101331.06;5147533;27;20027;-56
2022/10/20 07:56:41;;;;;;;1.60;1.50;;;;;;;18.29;53.88;101328.75;5148574;27;20023;-56
2022/10/20 07:59:07;;;;;;;2.38;1.70;;;;;;;18.30;53.75;101328.59;5147877;27;20065;-55
2022/10/20 08:01:33;;;;;;;3.28;2.47;;;;;;;18.29;53.54;101326.91;5148400;27;20060;-53
2022/10/20 08:03:58;;;;;;;2.10;1.95;;;;;;;18.34;53.91;101327.28;5134238;27;20028;-55
2022/10/20 08:06:24;;;;;;;1.45;1.20;;;;;;;18.36;53.72;101340.63;5134057;27;20070;-55
2022/10/20 08:08:49;;;;;;;1.77;1.42;;;;;;;18.38;53.41;101336.75;5146876;27;20048;-54
2022/10/20 08:11:14;;;;;;;2.55;1.90;;;;;;;18.41;53.36;101347.22;5148114;27;20080;-55
2022/10/20 08:13:41;;;;;;;2.03;1.60;;;;;;;18.43;53.65;101341.66;5139124;27;20024;-54
2022/10/20 08:16:08;;;;;;;1.63;1.52;;;;;;;18.46;53.23;101344.06;5127620;28;20020;-55
2022/10/20 08:18:33;;;;;;;1.23;1.13;;;;;;;18.47;53.60;101343.88;5125747;28;20020;-54
2022/10/20 08:21:24;;;;;;;1.48;1.30;;;;;;;18.47;53.33;101340.34;5127265;28;20147;-55
2022/10/20 08:23:50;;;;;;;2.17;1.88;;;;;;;18.49;53.44;101333.81;5125173;27;20074;-54
2022/10/20 08:26:18;;;;;;;2.00;1.80;;;;;;;18.51;53.02;101335.50;5125998;28;20020;-57
2022/10/20 08:28:43;;;;;;;1.92;1.60;;;;;;;18.43;53.32;101310.19;5127087;28;20534;-56
2022/10/20 08:31:08;;;;;;;2.50;1.60;;;;;;;18.53;53.02;101312.81;5126973;28;20023;-53
2022/10/20 08:33:34;;;;;;;1.77;1.67;;;;;;;18.39;52.81;101292.69;5126767;28;20391;-56
2022/10/20 08:36:04;;;;;;;1.60;1.45;;;;;;;18.55;53.20;101310.81;5127168;28;20050;-55
2022/10/20 08:38:30;;;;;;;1.88;1.60;;;;;;;18.45;52.92;101286.66;5127308;28;20030;-56
2022/10/20 08:40:55;;;;;;;1.50;1.40;;;;;;;18.58;53.15;101301.56;5143790;27;20027;-56
2022/10/20 08:43:21;;;;;;;1.67;1.33;;;;;;;18.58;53.08;101306.97;5147620;27;20046;-55
2022/10/20 08:45:46;;;;;;;1.40;1.30;;;;;;;18.57;53.04;101289.97;5146247;27;20041;-56
2022/10/20 08:48:17;;;;;;;1.70;1.40;;;;;;;18.57;52.80;101278.34;5146458;27;20531;-57
2022/10/20 08:50:45;;;;;;;2.60;1.58;;;;;;;18.58;52.87;101274.66;5146811;27;20019;-54
2022/10/20 08:53:10;;;;;;;3.80;1.70;;;;;;;18.59;52.82;101300.56;5145672;27;20106;-57
2022/10/20 08:55:36;;;;;;;1.50;1.35;;;;;;;18.59;52.61;101287.09;5145728;27;20670;-54
2022/10/20 08:58:03;;;;;;;1.63;1.33;;;;;;;18.49;53.13;101271.91;5147008;27;20045;-56
2022/10/20 09:00:30;;;;;;;1.52;1.42;;;;;;;18.57;53.10;101278.34;5145722;27;20033;-56
2022/10/20 09:03:00;;;;;;;1.77;1.67;;;;;;;18.55;52.93;101262.34;5146271;27;20023;-56
2022/10/20 09:05:27;;;;;;;1.92;1.40;;;;;;;18.65;52.98;101268.47;5145506;27;20069;-57
2022/10/20 09:07:53;;;;;;;1.58;1.48;;;;;;;18.68;52.98;101268.13;5128443;27;20031;-56
2022/10/20 09:10:23;;;;;;;1.58;1.45;;;;;;;18.72;52.59;101269.56;5126082;28;20568;-54
2022/10/20 09:12:49;;;;;;;1.88;1.42;;;;;;;18.76;52.71;101270.09;5128073;27;20054;-54
2022/10/20 09:15:16;;;;;;;2.25;1.70;;;;;;;18.75;52.33;101270.25;5146700;27;20027;-56
2022/10/20 09:17:45;;;;;;;1.77;1.40;;;;;;;18.82;52.52;101265.91;5147086;27;20487;-56
2022/10/20 09:20:17;;;;;;;2.72;1.73;;;;;;;18.72;52.34;101236.38;5144786;27;20082;-57
2022/10/20 09:22:42;;;;;;;1.52;1.42;;;;;;;18.86;52.40;101268.13;5142475;27;20035;-55
2022/10/20 09:25:14;;;;;;;2.40;1.60;;;;;;;18.83;52.26;101252.28;5123472;28;20105;-56
2022/10/20 09:27:41;;;;;;;2.60;1.60;;;;;;;18.87;52.26;101250.13;5124843;28;20016;-57
2022/10/20 09:30:22;;;;;;;1.35;1.25;;;;;;;18.94;52.02;101257.38;5132450;27;20019;-56
2022/10/20 09:32:49;;;;;;;1.50;1.40;;;;;;;18.83;51.75;101224.50;5126491;28;20031;-57
2022/10/20 09:35:14;;;;;;;1.60;1.42;;;;;;;18.99;52.18;101248.84;5124959;28;20035;-53
2022/10/20 09:37:40;;;;;;;1.75;1.45;;;;;;;19.01;51.88;101244.13;5125991;28;20161;-56
2022/10/20 09:40:13;;;;;;;3.20;1.63;;;;;;;18.92;51.80;101237.84;5134732;27;20110;-55
2022/10/20 09:42:43;;;;;;;2.20;1.70;;;;;;;19.06;51.87;101238.25;5145576;27;20023;-56
2022/10/20 09:45:14;;;;;;;3.00;1.65;;;;;;;19.08;51.61;101249.72;5144866;27;20039;-56
2022/10/20 09:47:41;;;;;;;1.75;1.60;;;;;;;19.09;51.83;101244.16;5146390;27;20631;-55
2022/10/20 09:50:07;;;;;;;2.38;2.00;;;;;;;19.10;51.47;101245.00;5143826;27;20087;-57
2022/10/20 09:52:46;;;;;;;2.60;1.70;;;;;;;19.08;51.63;101234.41;5134535;27;20035;-58
2022/10/20 09:55:31;;;;;;;1.95;1.60;;;;;;;19.09;51.56;101233.38;5124544;28;20031;-55
2022/10/20 09:57:59;;;;;;;1.98;1.60;;;;;;;19.10;51.90;101236.91;5125407;28;20131;-57
2022/10/20 10:00:39;;;;;;;2.38;1.70;;;;;;;19.10;51.82;101226.97;5125171;28;20038;-56
2022/10/20 10:03:13;;;;;;;2.33;1.50;;;;;;;19.10;51.98;101226.13;5124253;28;20027;-57
2022/10/20 10:05:39;;;;;;;1.70;1.50;;;;;;;19.10;51.83;101232.38;5124441;28;20024;-56
2022/10/20 10:08:04;;;;;;;1.80;1.65;;;;;;;19.10;51.51;101229.66;5145260;27;20035;-57
2022/10/20 10:10:30;;;;;;;2.15;1.95;;;;;;;19.04;51.88;101222.25;5145375;27;20015;-57
2022/10/20 10:12:59;;;;;;;2.67;1.77;;;;;;;19.11;51.80;101220.56;5125265;27;20031;-55
2022/10/20 10:15:29;;;;;;;;;;;;;;;19.12;51.66;101221.44;5125127;28;20032;-55
2022/10/20 10:17:55;;;;;;;2.10;1.90;;;;;;;18.99;51.65;101205.72;5125096;28;19911;-56
2022/10/20 10:20:36;;;;;;;2.13;1.92;;;;;;;19.06;51.73;101206.75;5122788;28;20099;-58
2022/10/20 10:23:22;;;;;;;2.88;2.05;;;;;;;19.08;51.82;101212.00;5123437;27;20032;-58
2022/10/20 10:25:49;;;;;;;2.20;2.00;;;;;;;19.13;51.90;101220.44;5123166;28;20519;-58
2022/10/20 10:28:29;;;;;;;1.80;1.70;;;;;;;19.13;51.74;101215.03;5124796;28;20135;-59
2022/10/20 10:31:24;;;;;;;3.53;1.92;;;;;;;19.11;51.85;101220.56;5124737;28;20023;-58
2022/10/20 10:33:53;;;;;;;2.08;1.70;;;;;;;19.11;51.90;101215.19;5110818;28;20043;-58
2022/10/20 10:36:33;;;;;;;3.33;2.00;;;;;;;19.11;52.04;101223.28;5123355;28;20039;-58
2022/10/20 10:38:59;;;;;;;2.67;1.83;;;;;;;19.10;52.31;101207.28;5130271;27;20396;-58
2022/10/20 10:41:49;;;;;;;1.70;1.55;;;;;;;19.09;52.47;101211.81;5138450;27;20526;-58
2022/10/20 10:44:21;;;;;;;2.05;1.60;;;;;;;19.10;52.44;101209.97;5144893;27;20027;-58
2022/10/20 10:47:06;;;;;;;2.95;1.90;;;;;;;19.11;52.31;101203.56;5126697;27;20027;-58
2022/10/20 10:49:39;;;;;;;2.40;1.73;;;;;;;19.10;52.40;101193.78;5143888;27;20051;-59
2022/10/20 10:52:22;;;;;;;2.50;1.88;;;;;;;19.11;52.72;101195.47;5144531;27;20138;-59
2022/10/20 10:54:56;;;;;;;2.55;1.90;;;;;;;19.02;52.78;101174.91;5143989;27;20030;-59
2022/10/20 10:57:43;;;;;;;1.95;1.65;;;;;;;19.11;52.50;101200.88;5143442;27;20051;-59
2022/10/20 11:00:18;;;;;;;1.90;1.70;;;;;;;19.10;53.00;101197.34;5143056;27;20024;-59
2022/10/20 11:03:02;;;;;;;2.95;2.08;;;;;;;19.11;52.78;101207.09;5143877;27;20023;-59
2022/10/20 11:05:38;;;;;;;2.10;1.90;;;;;;;19.11;52.76;101198.16;5142890;27;20064;-58
2022/10/20 11:08:35;;;;;;;2.42;1.58;;;;;;;19.11;53.05;101195.47;5142943;27;20059;-59
2022/10/20 11:11:13;;;;;;;3.00;2.35;;;;;;;19.10;52.88;101204.56;5144563;27;20015;-58
2022/10/20 11:14:15;;;;;;;3.07;2.27;;;;;;;19.11;52.99;101214.34;5134661;27;20040;-59
2022/10/20 11:17:27;;;;;;;2.35;1.80;;;;;;;19.11;52.86;101211.66;5123900;28;20347;-59
2022/10/20 11:19:55;;;;;;;2.15;1.80;;;;;;;19.11;52.76;101208.94;5113624;28;20037;-57
2022/10/20 11:22:24;;;;;;;2.88;1.70;;;;;;;19.12;53.18;101202.59;5122996;27;20032;-58
2022/10/20 11:25:16;;;;;;;1.73;1.63;;;;;;;19.11;52.94;101196.31;5123073;28;20083;-59
2022/10/20 11:27:42;;;;;;;2.13;1.75;;;;;;;19.12;53.21;101183.72;5121974;28;20042;-59
2022/10/20 11:30:18;;;;;;;3.08;1.60;;;;;;;19.06;53.30;101166.31;5123627;28;20087;-59
2022/10/20 11:32:48;;;;;;;1.83;1.55;;;;;;;19.14;53.02;101179.81;5135371;28;20061;-58
2022/10/20 11:35:57;;;;;;;2.25;1.65;;;;;;;19.15;53.06;101172.59;5132529;28;20041;-57